Time;durP1;ratioP1;P1;durP2;ratioP2;P2;SDS_P1;SDS_P2;PMS_P1;PMS_P2;Temp;Humidity;BMP_temperature;BMP_pressure;BME280_temperature;BME280_humidity;BME280_pressure;Samples;Min_cycle;Max_cycle;Signal;HPM_P1;HPM_P2
2023/10/02 00:03:21;;;;;;;18.98;8.32;;;;;;;18.48;99.26;101118.63;8332575;28;20041;-61
2023/10/02 00:07:24;;;;;;;24.33;8.82;;;;;;;18.24;100.00;101110.44;8337981;28;20040;-62
2023/10/02 00:11:40;;;;;;;21.35;8.23;;;;;;;18.22;100.00;101106.19;8328069;28;20030;-62
2023/10/02 00:15:40;;;;;;;23.67;8.65;;;;;;;18.04;100.00;101105.53;8329569;28;20040;-62
2023/10/02 00:19:46;;;;;;;22.77;8.25;;;;;;;18.04;100.00;101106.41;8337703;28;20128;-61
2023/10/02 00:24:02;;;;;;;24.73;9.40;;;;;;;18.10;100.00;101111.19;8335475;28;20040;-62
2023/10/02 00:28:08;;;;;;;21.63;7.95;;;;;;;18.05;100.00;101110.00;8315649;28;20365;-63
2023/10/02 00:32:12;;;;;;;21.83;9.07;;;;;;;18.07;100.00;101114.28;8321715;28;20051;-63
2023/10/02 00:36:14;;;;;;;20.63;8.87;;;;;;;18.07;100.00;101110.66;8334525;28;20120;-63
2023/10/02 00:40:21;;;;;;;22.58;8.80;;;;;;;18.07;100.00;101108.78;8336126;28;20042;-63
2023/10/02 00:44:22;;;;;;;21.70;8.88;;;;;;;18.18;99.95;101116.66;8334825;28;20044;-62
2023/10/02 00:48:25;;;;;;;24.70;9.38;;;;;;;18.12;99.36;101111.00;8331407;28;20489;-63
2023/10/02 00:52:26;;;;;;;30.45;8.85;;;;;;;18.01;99.96;101098.53;8310585;28;20290;-63
2023/10/02 00:56:28;;;;;;;23.70;9.38;;;;;;;18.02;100.00;101110.34;8320294;28;20040;-64
2023/10/02 01:00:35;;;;;;;23.98;9.13;;;;;;;17.90;100.00;101101.63;8333372;28;20100;-63
2023/10/02 01:04:36;;;;;;;24.25;8.88;;;;;;;17.78;100.00;101103.00;8334950;28;20042;-63
2023/10/02 01:08:43;;;;;;;28.80;8.82;;;;;;;17.86;100.00;101111.22;8318953;28;20037;-64
2023/10/02 01:12:49;;;;;;;24.13;9.35;;;;;;;17.89;100.00;101099.94;8332324;28;20072;-63
2023/10/02 01:16:50;;;;;;;22.75;9.23;;;;;;;17.78;100.00;101105.75;8330186;28;20432;-63
2023/10/02 01:20:53;;;;;;;22.27;9.10;;;;;;;17.67;100.00;101095.19;8336216;28;20122;-63
2023/10/02 01:25:12;;;;;;;25.10;9.55;;;;;;;17.48;100.00;101106.47;8332737;28;20049;-63
2023/10/02 01:29:13;;;;;;;21.30;8.95;;;;;;;17.51;100.00;101106.13;8333357;28;20037;-63
2023/10/02 01:37:33;;;;;;;23.77;8.95;;;;;;;17.53;100.00;101104.94;8350591;27;20404;-62
2023/10/02 01:41:34;;;;;;;25.80;10.02;;;;;;;17.49;100.00;101103.56;8344535;28;20075;-62
2023/10/02 01:45:34;;;;;;;25.73;9.32;;;;;;;17.56;100.00;101098.25;8347952;28;20112;-62
2023/10/02 01:49:37;;;;;;;25.35;9.05;;;;;;;17.63;100.00;101100.13;8347172;28;20480;-62
2023/10/02 01:53:37;;;;;;;21.73;7.78;;;;;;;17.58;100.00;101097.06;8347919;28;20080;-62
2023/10/02 01:57:38;;;;;;;26.13;8.80;;;;;;;17.43;100.00;101104.25;8346605;28;20048;-63
2023/10/02 02:01:52;;;;;;;23.38;8.90;;;;;;;17.44;100.00;101099.63;8338484;28;20082;-62
2023/10/02 02:05:52;;;;;;;22.52;9.98;;;;;;;17.48;100.00;101106.47;8337840;28;20411;-62
2023/10/02 02:09:53;;;;;;;19.70;8.45;;;;;;;17.46;100.00;101097.56;8342241;28;20099;-62
2023/10/02 02:13:55;;;;;;;25.20;9.32;;;;;;;17.45;100.00;101091.25;8345076;28;20037;-62
2023/10/02 02:17:57;;;;;;;24.58;9.82;;;;;;;17.42;100.00;101087.97;8341909;28;20242;-62
2023/10/02 02:21:58;;;;;;;24.25;9.05;;;;;;;17.44;100.00;101085.94;8339317;28;20061;-62
2023/10/02 02:25:59;;;;;;;22.67;8.70;;;;;;;17.43;100.00;101087.84;8343210;28;20345;-62
2023/10/02 02:30:00;;;;;;;29.02;9.23;;;;;;;17.47;100.00;101093.81;8346908;28;20041;-62
2023/10/02 02:34:04;;;;;;;23.67;9.10;;;;;;;17.31;100.00;101086.44;8347161;28;20042;-63
2023/10/02 02:38:14;;;;;;;22.13;9.53;;;;;;;17.27;100.00;101092.41;8346893;28;20041;-63
2023/10/02 02:46:29;;;;;;;25.60;9.70;;;;;;;16.92;100.00;101081.75;8407633;27;20385;-60
2023/10/02 02:50:36;;;;;;;25.20;10.05;;;;;;;16.94;100.00;101087.91;8399177;27;20051;-60
2023/10/02 02:54:44;;;;;;;24.95;9.32;;;;;;;17.05;100.00;101082.97;8398057;27;20044;-60
2023/10/02 02:58:48;;;;;;;23.75;8.40;;;;;;;17.15;100.00;101074.63;8401637;27;20062;-60
2023/10/02 03:02:52;;;;;;;19.85;8.90;;;;;;;17.24;100.00;101081.81;8398365;27;20368;-60
2023/10/02 03:07:08;;;;;;;22.15;8.82;;;;;;;17.27;100.00;101076.00;8394252;27;20062;-60
2023/10/02 03:11:10;;;;;;;22.45;9.00;;;;;;;17.22;100.00;101070.19;8396026;27;20118;-60
2023/10/02 03:15:15;;;;;;;27.38;9.57;;;;;;;17.23;100.00;101066.47;8400780;27;20032;-60
2023/10/02 03:19:16;;;;;;;;;;;;;;;17.24;100.00;101066.28;8393322;27;20110;-60
2023/10/02 03:23:18;;;;;;;27.60;8.95;;;;;;;17.31;100.00;101066.44;8395173;27;20003;-60
2023/10/02 03:27:21;;;;;;;22.10;9.57;;;;;;;17.43;100.00;101062.38;8399422;27;20040;-60
2023/10/02 03:31:34;;;;;;;26.63;9.98;;;;;;;17.39;100.00;101059.09;8393026;28;20403;-60
2023/10/02 03:35:39;;;;;;;25.85;9.43;;;;;;;17.34;100.00;101060.63;8402152;27;20070;-60
2023/10/02 03:40:45;;;;;;;24.77;9.63;;;;;;;17.27;100.00;101059.63;8379605;28;20545;-60
2023/10/02 03:44:03;;;;;;;24.30;8.52;;;;;;;17.18;100.00;101060.63;8386216;27;20044;-60
2023/10/02 03:48:07;;;;;;;31.20;9.15;;;;;;;17.09;100.00;101056.19;8393752;27;20048;-60
2023/10/02 03:52:09;;;;;;;21.85;9.00;;;;;;;16.99;100.00;101061.78;8395241;27;20051;-60
2023/10/02 03:56:42;;;;;;;24.35;9.57;;;;;;;16.87;100.00;101062.31;8382083;27;20048;-60
2023/10/02 04:00:43;;;;;;;27.75;9.57;;;;;;;16.76;100.00;101059.88;8371021;28;20036;-60
2023/10/02 04:04:44;;;;;;;21.35;9.10;;;;;;;16.70;100.00;101055.06;8370509;28;20040;-60
2023/10/02 04:08:44;;;;;;;26.75;9.55;;;;;;;16.58;100.00;101056.41;8373782;28;20098;-60
2023/10/02 04:12:50;;;;;;;24.35;9.30;;;;;;;16.55;100.00;101051.28;8373457;28;20538;-61
2023/10/02 04:16:52;;;;;;;23.73;8.95;;;;;;;16.49;100.00;101046.47;8373339;28;20071;-63
2023/10/02 04:21:01;;;;;;;21.83;8.23;;;;;;;16.56;100.00;101051.13;8374103;28;20062;-60
2023/10/02 04:25:05;;;;;;;24.92;8.45;;;;;;;16.55;100.00;101041.22;8368063;28;20500;-61
2023/10/02 04:29:38;;;;;;;27.43;9.90;;;;;;;16.51;100.00;101028.94;8374410;28;20459;-60
2023/10/02 04:33:26;;;;;;;24.67;9.02;;;;;;;16.48;100.00;101034.72;8367583;28;20491;-59
2023/10/02 04:37:31;;;;;;;26.35;9.85;;;;;;;16.47;100.00;101026.72;8373545;28;20486;-61
2023/10/02 04:42:05;;;;;;;26.38;9.80;;;;;;;16.49;100.00;101019.19;8374968;28;20091;-60
2023/10/02 04:46:01;;;;;;;25.98;8.98;;;;;;;16.46;100.00;101035.91;8374705;28;20523;-60
2023/10/02 04:54:16;;;;;;;25.08;9.05;;;;;;;16.43;100.00;101025.28;8340638;27;20504;-60
2023/10/02 04:58:20;;;;;;;24.33;9.10;;;;;;;16.37;100.00;101028.66;8348044;28;20033;-62
2023/10/02 05:02:24;;;;;;;19.42;8.80;;;;;;;16.37;100.00;101028.66;8348138;28;20067;-61
2023/10/02 05:06:56;;;;;;;26.60;9.90;;;;;;;16.43;100.00;101022.53;8355953;28;20068;-63
2023/10/02 05:10:47;;;;;;;24.73;9.60;;;;;;;16.51;100.00;101025.34;8357420;28;20303;-63
2023/10/02 05:14:51;;;;;;;24.90;9.40;;;;;;;16.61;100.00;101026.91;8347384;28;20043;-63
2023/10/02 05:18:53;;;;;;;21.92;8.85;;;;;;;16.68;100.00;101027.09;8348342;28;20044;-63
2023/10/02 05:22:58;;;;;;;24.85;9.23;;;;;;;16.67;100.00;101034.44;8348019;28;20554;-65
2023/10/02 05:26:59;;;;;;;26.77;9.65;;;;;;;16.71;100.00;101026.78;8347877;28;20033;-63
2023/10/02 05:31:00;;;;;;;27.00;10.35;;;;;;;16.76;100.00;101036.16;8346603;28;20531;-64
2023/10/02 05:35:16;;;;;;;26.23;10.13;;;;;;;16.73;100.00;101032.91;8347490;28;20450;-63
2023/10/02 05:39:48;;;;;;;25.00;9.55;;;;;;;16.76;100.00;101035.28;8343859;28;20049;-64
2023/10/02 05:43:55;;;;;;;21.40;9.40;;;;;;;16.84;100.00;101046.25;8345783;28;20048;-63
2023/10/02 05:47:55;;;;;;;25.35;9.18;;;;;;;16.90;100.00;101040.13;8325444;28;20099;-63
2023/10/02 05:51:56;;;;;;;24.67;9.48;;;;;;;16.93;100.00;101034.31;8346947;28;20033;-63
2023/10/02 05:55:57;;;;;;;29.42;10.57;;;;;;;16.98;100.00;101042.84;8337304;28;20135;-63
2023/10/02 06:00:00;;;;;;;26.20;10.10;;;;;;;16.98;100.00;101048.31;8347027;28;20458;-63
2023/10/02 06:04:00;;;;;;;27.25;9.77;;;;;;;17.04;100.00;101058.56;8332594;28;20038;-63
2023/10/02 06:08:01;;;;;;;24.08;8.98;;;;;;;17.05;100.00;101049.34;8323217;28;20115;-64
2023/10/02 06:12:05;;;;;;;24.30;10.05;;;;;;;17.11;100.00;101059.63;8324394;28;20041;-63
2023/10/02 06:16:07;;;;;;;26.10;9.65;;;;;;;17.14;100.00;101062.00;8323421;28;20041;-63
2023/10/02 06:20:17;;;;;;;24.92;10.02;;;;;;;17.26;100.00;101058.75;8319898;28;20048;-63
2023/10/02 06:24:19;;;;;;;29.25;10.18;;;;;;;17.44;99.15;101069.53;8323782;28;20042;-65
2023/10/02 06:28:23;;;;;;;24.58;9.30;;;;;;;17.53;98.21;101071.25;8323721;28;20052;-62
2023/10/02 06:32:26;;;;;;;;;;;;;;;17.68;97.34;101069.53;8324673;28;20040;-61
2023/10/02 06:36:27;;;;;;;26.45;9.55;;;;;;;17.73;97.42;101061.66;8323899;28;19928;-62
2023/10/02 06:40:29;;;;;;;26.65;10.27;;;;;;;17.90;96.32;101068.81;8323853;28;20033;-62
2023/10/02 06:45:02;;;;;;;23.58;9.02;;;;;;;18.10;95.66;101070.13;8322505;28;20112;-62
2023/10/02 06:48:54;;;;;;;27.77;11.13;;;;;;;18.22;94.99;101068.72;8322024;28;20037;-62
2023/10/02 06:52:57;;;;;;;27.05;9.98;;;;;;;18.40;94.40;101066.66;8323100;28;20466;-65
2023/10/02 06:56:58;;;;;;;25.20;9.98;;;;;;;18.59;93.43;101060.72;8322674;28;20471;-61
2023/10/02 07:01:03;;;;;;;23.58;8.57;;;;;;;18.73;92.63;101065.44;8317187;28;20060;-62
2023/10/02 07:05:10;;;;;;;26.25;9.20;;;;;;;18.73;93.26;101057.22;8322278;28;20040;-62
2023/10/02 07:09:10;;;;;;;25.17;9.77;;;;;;;18.73;93.48;101061.84;8323141;28;20041;-61
2023/10/02 07:13:20;;;;;;;23.50;10.02;;;;;;;18.68;94.81;101065.13;8322871;28;20040;-62
2023/10/02 07:17:23;;;;;;;23.40;9.68;;;;;;;18.91;93.99;101070.66;8321257;28;20068;-61
2023/10/02 07:21:26;;;;;;;21.90;9.10;;;;;;;19.14;93.70;101069.63;8322146;28;20459;-61
2023/10/02 07:25:27;;;;;;;24.58;9.63;;;;;;;19.48;91.69;101063.72;8321609;28;20037;-62
2023/10/02 07:29:43;;;;;;;24.17;8.75;;;;;;;19.75;91.51;101065.03;8322185;28;20057;-61
2023/10/02 07:33:44;;;;;;;25.20;9.90;;;;;;;20.06;89.78;101068.50;8317438;28;20044;-62
2023/10/02 07:37:57;;;;;;;24.23;10.10;;;;;;;20.24;87.85;101066.22;8317674;28;20046;-61
2023/10/02 07:42:04;;;;;;;27.33;9.80;;;;;;;20.59;87.29;101065.47;8321127;28;20037;-62
2023/10/02 07:46:21;;;;;;;19.60;9.15;;;;;;;20.75;86.03;101066.09;8316083;28;20256;-59
2023/10/02 07:50:33;;;;;;;25.02;9.75;;;;;;;20.97;85.88;101069.75;8313105;28;20510;-59
2023/10/02 07:54:44;;;;;;;24.40;9.73;;;;;;;21.06;85.61;101068.59;8311388;28;20084;-60
2023/10/02 07:58:54;;;;;;;21.45;9.25;;;;;;;21.32;84.18;101060.63;8316573;28;20515;-59
2023/10/02 08:02:55;;;;;;;28.73;10.38;;;;;;;21.46;82.45;101059.69;8320714;28;20041;-59
2023/10/02 08:07:00;;;;;;;28.45;9.93;;;;;;;21.86;81.47;101055.41;8320797;28;20029;-59
2023/10/02 08:11:02;;;;;;;23.60;8.60;;;;;;;22.13;81.83;101060.03;8318963;28;20176;-60
2023/10/02 08:15:26;;;;;;;28.65;10.65;;;;;;;22.48;79.45;101065.31;8313577;28;20059;-60
2023/10/02 08:19:28;;;;;;;24.13;9.85;;;;;;;22.70;78.47;101061.47;8297699;28;20053;-59
2023/10/02 08:23:28;;;;;;;31.80;10.57;;;;;;;22.78;78.49;101069.53;8310368;28;20039;-60
2023/10/02 08:27:32;;;;;;;27.45;10.43;;;;;;;23.03;77.70;101062.41;8309909;28;20128;-60
2023/10/02 08:31:33;;;;;;;27.70;10.25;;;;;;;23.08;77.88;101059.88;8315049;28;20049;-62
2023/10/02 08:35:46;;;;;;;25.73;9.82;;;;;;;23.28;78.33;101054.44;8313371;28;20415;-61
2023/10/02 08:39:46;;;;;;;22.08;9.05;;;;;;;23.40;78.19;101043.63;8311137;28;20508;-61
2023/10/02 08:43:47;;;;;;;29.80;10.30;;;;;;;23.82;74.63;101040.44;8311159;28;20454;-58
2023/10/02 08:47:48;;;;;;;22.85;9.63;;;;;;;23.88;75.16;101036.81;8298458;28;20368;-63
2023/10/02 08:51:48;;;;;;;29.33;10.27;;;;;;;24.01;73.66;101031.31;8313854;28;20044;-64
2023/10/02 09:00:24;;;;;;;23.98;9.80;;;;;;;24.75;73.01;101029.81;8331871;27;20408;-62
2023/10/02 09:04:28;;;;;;;27.30;10.27;;;;;;;25.21;72.90;101033.16;8315170;28;20555;-63
2023/10/02 09:08:59;;;;;;;;;;;;;;;26.43;69.22;101032.31;8343482;28;20061;-63
2023/10/02 09:13:17;;;;;;;29.95;10.73;;;;;;;27.47;64.96;101026.44;8305790;28;19999;-63
2023/10/02 09:17:20;;;;;;;24.77;10.00;;;;;;;28.88;60.06;101025.91;8298299;28;20045;-64
2023/10/02 09:21:22;;;;;;;27.50;9.68;;;;;;;28.97;60.02;101038.31;8303326;28;20265;-63
2023/10/02 09:25:26;;;;;;;26.85;10.05;;;;;;;29.39;60.35;101034.16;8314818;28;20057;-63
2023/10/02 09:29:27;;;;;;;27.65;10.15;;;;;;;29.81;57.36;101032.69;8302284;28;20493;-64
2023/10/02 09:33:28;;;;;;;24.02;10.23;;;;;;;29.73;57.38;101041.47;8296868;28;20435;-63
2023/10/02 09:37:28;;;;;;;24.63;9.20;;;;;;;29.62;57.77;101033.19;8299326;28;20046;-64
2023/10/02 09:41:31;;;;;;;27.38;10.88;;;;;;;29.87;56.41;101023.31;8298253;28;20044;-63
2023/10/02 09:45:35;;;;;;;26.80;10.27;;;;;;;29.92;57.59;101006.63;8300475;28;20048;-63
2023/10/02 09:49:47;;;;;;;28.33;9.80;;;;;;;30.59;55.73;101012.09;8301735;28;20073;-63
2023/10/02 09:54:09;;;;;;;25.83;10.25;;;;;;;30.49;56.00;101006.38;8298672;28;20049;-63
2023/10/02 09:58:28;;;;;;;24.55;10.27;;;;;;;30.73;55.47;101002.22;8297525;28;20041;-65
2023/10/02 10:06:48;;;;;;;24.73;10.43;;;;;;;31.02;54.70;100984.16;8306254;28;20050;-64
2023/10/02 10:10:50;;;;;;;26.15;10.77;;;;;;;30.70;54.31;100981.25;8281348;28;20064;-64
2023/10/02 10:14:54;;;;;;;28.38;10.70;;;;;;;31.18;54.70;100972.00;8273157;28;20566;-64
2023/10/02 10:23:31;;;;;;;26.38;10.45;;;;;;;32.16;51.65;100964.75;8395360;27;20398;-63
2023/10/02 10:31:55;;;;;;;23.50;9.95;;;;;;;32.48;51.25;100961.88;8369267;27;20350;-63
2023/10/02 10:35:56;;;;;;;22.65;10.13;;;;;;;32.42;50.96;100974.16;8369818;28;20499;-60
2023/10/02 10:39:59;;;;;;;25.27;10.38;;;;;;;32.21;51.29;100961.13;8363548;28;20411;-67
2023/10/02 10:44:06;;;;;;;24.25;10.40;;;;;;;32.41;50.50;100964.06;8375325;28;20064;-66
2023/10/02 10:48:26;;;;;;;27.63;10.88;;;;;;;33.24;50.38;100952.53;8358868;28;20045;-64
2023/10/02 10:52:35;;;;;;;22.67;10.13;;;;;;;34.15;47.97;100953.34;8337315;28;20420;-64
2023/10/02 10:56:35;;;;;;;21.40;9.38;;;;;;;33.80;48.29;100959.88;8337457;28;20043;-63
2023/10/02 11:00:41;;;;;;;24.02;10.07;;;;;;;33.82;48.98;100963.22;8342184;28;20043;-63
2023/10/02 11:04:50;;;;;;;28.85;10.30;;;;;;;34.70;46.90;100958.78;8343744;28;20094;-60
2023/10/02 11:09:22;;;;;;;21.02;9.30;;;;;;;34.57;46.55;100964.19;8351146;28;20186;-63
2023/10/02 11:13:24;;;;;;;22.55;9.65;;;;;;;35.12;46.08;100955.47;8354223;28;20361;-63
2023/10/02 11:17:32;;;;;;;23.58;9.85;;;;;;;35.21;46.28;100942.44;8358137;28;20423;-63
2023/10/02 11:21:44;;;;;;;23.77;9.20;;;;;;;35.82;45.19;100938.03;8360163;28;20029;-64
2023/10/02 11:25:55;;;;;;;24.08;10.07;;;;;;;35.60;45.80;100929.22;8361101;28;20399;-63
2023/10/02 11:30:02;;;;;;;20.90;9.82;;;;;;;35.80;45.23;100929.03;8318512;28;20276;-63
2023/10/02 11:34:04;;;;;;;25.25;10.18;;;;;;;35.91;44.44;100925.00;8349163;28;20052;-64
2023/10/02 11:38:07;;;;;;;24.13;9.85;;;;;;;35.39;45.46;100934.19;8340161;28;20046;-63
2023/10/02 11:42:07;;;;;;;25.80;10.25;;;;;;;35.68;46.18;100929.41;8329212;28;20279;-63
2023/10/02 11:46:08;;;;;;;23.67;10.07;;;;;;;35.64;45.63;100919.03;8313635;28;20041;-64
2023/10/02 11:50:09;;;;;;;20.83;9.27;;;;;;;35.54;46.03;100913.50;8311677;28;20077;-61
2023/10/02 11:54:11;;;;;;;19.55;9.23;;;;;;;35.65;45.34;100909.47;8320069;28;20041;-62
2023/10/02 11:58:12;;;;;;;20.13;9.68;;;;;;;35.56;44.90;100900.00;8315225;28;20503;-63
2023/10/02 12:02:13;;;;;;;20.02;9.80;;;;;;;35.57;46.53;100901.66;8314724;28;20494;-63
2023/10/02 12:06:16;;;;;;;18.67;9.02;;;;;;;34.93;46.71;100896.28;8317909;28;20038;-63
2023/10/02 12:10:16;;;;;;;20.67;8.73;;;;;;;34.25;47.17;100899.97;8310873;28;20041;-63
2023/10/02 12:14:17;;;;;;;20.95;9.30;;;;;;;33.12;49.46;100889.47;8313660;28;20064;-62
2023/10/02 12:18:17;;;;;;;20.40;9.73;;;;;;;32.98;51.43;100889.19;8306266;28;20061;-63
2023/10/02 12:22:19;;;;;;;21.65;10.65;;;;;;;33.02;51.94;100879.09;8312992;28;20056;-63
2023/10/02 12:26:21;;;;;;;23.85;10.73;;;;;;;32.26;52.28;100871.56;8336732;28;20115;-64
2023/10/02 12:30:21;;;;;;;23.13;9.18;;;;;;;31.30;53.66;100863.72;8311978;28;20108;-63
2023/10/02 12:34:21;;;;;;;23.65;8.98;;;;;;;30.86;54.64;100862.19;8313308;28;20041;-62
2023/10/02 12:38:24;;;;;;;25.75;10.50;;;;;;;31.60;52.51;100858.34;8313615;28;20033;-67
2023/10/02 12:42:25;;;;;;;23.48;10.63;;;;;;;31.50;53.44;100847.09;8310972;28;20029;-67
2023/10/02 12:46:27;;;;;;;22.58;9.90;;;;;;;30.98;54.59;100848.91;8308321;28;20067;-68
2023/10/02 12:50:28;;;;;;;25.60;10.93;;;;;;;30.53;55.02;100842.84;8315358;28;20045;-68
2023/10/02 12:54:29;;;;;;;21.42;10.05;;;;;;;30.42;56.67;100845.53;8322402;28;20447;-67
2023/10/02 12:58:30;;;;;;;27.52;10.55;;;;;;;30.50;57.10;100841.44;8326074;28;20132;-66
2023/10/02 13:02:31;;;;;;;25.60;9.57;;;;;;;30.41;56.69;100849.41;8313292;28;20034;-68
2023/10/02 13:06:32;;;;;;;28.92;11.25;;;;;;;30.22;57.07;100833.31;8306727;28;20614;-69
2023/10/02 13:10:33;;;;;;;30.40;10.88;;;;;;;30.37;57.04;100837.09;8309182;28;20458;-68
2023/10/02 13:14:34;;;;;;;25.45;10.43;;;;;;;30.21;58.04;100823.22;8320941;28;20049;-67
2023/10/02 13:18:35;;;;;;;24.30;10.18;;;;;;;30.48;56.58;100826.03;8309917;28;20061;-66
2023/10/02 13:22:36;;;;;;;21.50;10.25;;;;;;;30.33;56.65;100818.34;8309965;28;20045;-68
2023/10/02 13:26:38;;;;;;;28.50;9.95;;;;;;;30.42;56.13;100806.47;8312328;28;20434;-68
2023/10/02 13:30:41;;;;;;;24.13;10.27;;;;;;;30.02;57.14;100805.97;8314262;28;20124;-68
2023/10/02 13:34:42;;;;;;;24.27;9.93;;;;;;;30.04;58.47;100798.16;8314709;28;20080;-68
2023/10/02 13:38:44;;;;;;;25.05;10.90;;;;;;;30.29;58.30;100798.50;8322823;28;20048;-68
2023/10/02 13:42:46;;;;;;;25.17;9.98;;;;;;;30.08;58.15;100788.19;8312258;28;20041;-66
2023/10/02 13:46:47;;;;;;;24.35;10.60;;;;;;;30.18;58.37;100788.34;8308390;28;20171;-67
2023/10/02 13:50:49;;;;;;;22.88;9.95;;;;;;;30.05;56.96;100785.94;8310067;28;20042;-68
2023/10/02 13:54:50;;;;;;;24.13;10.27;;;;;;;29.87;57.55;100779.84;8309707;28;20037;-67
2023/10/02 13:58:51;;;;;;;26.88;10.55;;;;;;;30.00;57.32;100774.69;8319925;28;20049;-67
2023/10/02 14:02:53;;;;;;;24.27;9.20;;;;;;;29.91;57.41;100764.25;8313874;28;20042;-66
2023/10/02 14:06:53;;;;;;;22.33;9.85;;;;;;;29.78;57.46;100768.31;8323629;28;20047;-64
2023/10/02 14:10:54;;;;;;;23.38;9.38;;;;;;;29.89;57.41;100756.16;8325441;28;20045;-69
2023/10/02 14:14:55;;;;;;;22.67;9.50;;;;;;;29.78;58.15;100746.00;8328651;28;20080;-68
2023/10/02 14:18:56;;;;;;;23.58;9.70;;;;;;;29.69;59.19;100744.78;8368768;28;20495;-68
2023/10/02 14:22:57;;;;;;;27.40;9.93;;;;;;;29.57;59.24;100738.44;8332525;28;20040;-65
2023/10/02 14:26:57;;;;;;;21.55;9.55;;;;;;;29.43;58.59;100737.13;8335596;28;20044;-67
2023/10/02 14:30:58;;;;;;;21.90;9.73;;;;;;;29.48;59.18;100719.63;8341007;28;20052;-63
2023/10/02 14:34:59;;;;;;;23.35;9.65;;;;;;;29.74;58.83;100721.69;8333476;28;20033;-62
2023/10/02 14:39:02;;;;;;;23.55;9.25;;;;;;;29.69;58.30;100722.47;8344079;28;20129;-63
2023/10/02 14:43:03;;;;;;;16.75;7.47;;;;;;;29.52;58.62;100707.72;8352494;28;20052;-62
2023/10/02 14:47:04;;;;;;;21.48;7.78;;;;;;;29.50;57.94;100704.38;8368700;28;20041;-63
2023/10/02 14:51:07;;;;;;;21.02;8.30;;;;;;;29.61;58.67;100717.31;8362992;28;20048;-63
2023/10/02 14:55:16;;;;;;;16.98;8.07;;;;;;;29.53;57.56;100717.78;8360272;28;20045;-62
2023/10/02 14:59:17;;;;;;;18.20;8.02;;;;;;;29.51;57.28;100703.25;8324391;28;20375;-63
2023/10/02 15:03:18;;;;;;;19.73;8.25;;;;;;;29.50;57.29;100701.59;8350064;28;20566;-63
2023/10/02 15:07:19;;;;;;;20.70;8.55;;;;;;;29.52;56.53;100691.00;8345302;28;20444;-63
2023/10/02 15:11:19;;;;;;;19.17;8.40;;;;;;;29.54;57.57;100690.75;8367450;28;20063;-63
2023/10/02 15:15:22;;;;;;;21.75;8.43;;;;;;;29.46;58.83;100689.25;8339784;28;20108;-63
2023/10/02 15:19:22;;;;;;;21.83;8.55;;;;;;;29.23;59.73;100678.38;8325105;28;20053;-63
2023/10/02 15:23:23;;;;;;;20.15;8.63;;;;;;;29.18;60.60;100675.50;8323408;28;20060;-62
2023/10/02 15:27:23;;;;;;;20.13;7.93;;;;;;;29.12;61.13;100673.75;8324867;28;20064;-63
2023/10/02 15:31:24;;;;;;;17.23;7.65;;;;;;;29.02;60.76;100670.81;8319016;28;20041;-63
2023/10/02 15:35:25;;;;;;;19.77;8.52;;;;;;;29.09;62.18;100665.91;8316059;28;20230;-63
2023/10/02 15:39:26;;;;;;;19.13;8.73;;;;;;;29.11;62.05;100658.16;8309267;28;20036;-63
2023/10/02 15:43:27;;;;;;;18.27;7.65;;;;;;;29.09;61.55;100660.34;8313704;28;20053;-63
2023/10/02 15:47:27;;;;;;;24.00;8.63;;;;;;;29.06;62.07;100655.28;8308680;28;20033;-62
2023/10/02 15:51:28;;;;;;;21.25;9.05;;;;;;;28.92;61.39;100658.69;8313490;28;20056;-61
2023/10/02 15:55:29;;;;;;;21.55;8.93;;;;;;;28.91;61.50;100657.00;8313663;28;20406;-62
2023/10/02 15:59:29;;;;;;;20.45;8.30;;;;;;;28.86;62.10;100657.78;8309168;28;20076;-61
2023/10/02 16:03:30;;;;;;;21.58;8.80;;;;;;;28.70;62.72;100655.88;8318198;28;20037;-62
2023/10/02 16:07:35;;;;;;;25.90;9.55;;;;;;;28.56;63.60;100649.81;8338808;28;20047;-62
2023/10/02 16:11:36;;;;;;;22.33;9.50;;;;;;;28.40;64.32;100633.97;8351990;28;20587;-63
2023/10/02 16:15:37;;;;;;;20.88;8.95;;;;;;;28.29;64.79;100648.78;8339918;28;20396;-63
2023/10/02 16:19:37;;;;;;;20.42;8.77;;;;;;;28.21;65.63;100648.38;8339472;28;20140;-63
2023/10/02 16:23:41;;;;;;;20.48;8.70;;;;;;;28.12;65.67;100647.91;8349919;28;20040;-64
2023/10/02 16:27:43;;;;;;;23.73;9.20;;;;;;;28.14;65.19;100633.75;8345367;28;20037;-63
2023/10/02 16:31:45;;;;;;;23.50;8.63;;;;;;;27.99;65.89;100625.19;8342677;28;20136;-63
2023/10/02 16:35:45;;;;;;;22.88;9.32;;;;;;;27.88;66.96;100628.88;8322612;28;20099;-63
2023/10/02 16:39:46;;;;;;;20.90;9.05;;;;;;;27.86;67.07;100620.78;8349149;28;20049;-61
2023/10/02 16:43:46;;;;;;;21.80;9.07;;;;;;;27.99;66.29;100622.41;8343980;28;20691;-61
2023/10/02 16:47:48;;;;;;;18.27;7.93;;;;;;;27.94;66.54;100617.59;8339027;28;20116;-61
2023/10/02 16:51:49;;;;;;;19.90;8.57;;;;;;;27.81;65.90;100617.88;8334901;28;20408;-66
2023/10/02 16:55:54;;;;;;;19.27;8.73;;;;;;;27.64;67.26;100610.59;8321891;28;20427;-65
2023/10/02 16:59:55;;;;;;;20.98;8.07;;;;;;;27.39;67.48;100602.63;8315208;28;20124;-63
2023/10/02 17:03:55;;;;;;;16.52;6.85;;;;;;;27.13;66.49;100602.31;8329706;28;20098;-63
2023/10/02 17:07:57;;;;;;;14.95;6.75;;;;;;;26.97;65.29;100598.41;8317232;28;20391;-63
2023/10/02 17:11:59;;;;;;;13.45;6.28;;;;;;;26.78;63.64;100600.47;8309959;28;20033;-63
2023/10/02 17:15:59;;;;;;;11.60;5.35;;;;;;;26.52;63.65;100611.22;8317523;28;20061;-63
2023/10/02 17:20:00;;;;;;;13.77;5.53;;;;;;;26.21;64.49;100609.66;8331877;28;20044;-63
2023/10/02 17:24:01;;;;;;;12.93;5.63;;;;;;;25.91;64.81;100613.53;8313516;28;20037;-63
2023/10/02 17:28:02;;;;;;;16.60;6.28;;;;;;;25.64;65.68;100612.28;8342981;28;20156;-63
2023/10/02 17:32:03;;;;;;;17.55;7.13;;;;;;;25.45;65.31;100603.19;8325109;28;20045;-63
2023/10/02 17:36:04;;;;;;;18.88;7.38;;;;;;;25.51;64.09;100596.69;8307623;28;20060;-63
2023/10/02 17:40:08;;;;;;;17.80;7.38;;;;;;;25.53;62.83;100605.63;8322935;28;20054;-63
2023/10/02 17:44:09;;;;;;;21.93;8.93;;;;;;;25.20;62.98;100599.66;8322188;28;20049;-63
2023/10/02 17:48:10;;;;;;;24.30;9.40;;;;;;;24.92;63.96;100608.53;8311538;28;20124;-64
2023/10/02 17:52:11;;;;;;;25.35;9.00;;;;;;;24.41;66.47;100604.41;8316422;28;20608;-62
2023/10/02 17:56:12;;;;;;;25.80;9.80;;;;;;;23.91;68.14;100602.72;8314078;28;20353;-62
2023/10/02 18:00:13;;;;;;;26.05;10.00;;;;;;;23.65;69.01;100597.38;8344163;28;20393;-62
2023/10/02 18:04:14;;;;;;;25.42;9.60;;;;;;;23.38;69.42;100602.25;8325913;28;20454;-61
2023/10/02 18:08:14;;;;;;;33.78;10.55;;;;;;;23.29;68.95;100586.19;8314896;28;20119;-62
2023/10/02 18:12:15;;;;;;;29.33;10.85;;;;;;;23.53;67.63;100582.59;8304460;28;20049;-61
2023/10/02 18:16:17;;;;;;;31.30;11.27;;;;;;;23.99;65.16;100572.94;8316514;28;20079;-62
2023/10/02 18:20:18;;;;;;;34.00;11.95;;;;;;;24.43;63.68;100569.09;8324256;28;20195;-62
2023/10/02 18:24:18;;;;;;;35.65;12.77;;;;;;;24.46;63.58;100550.13;8326887;28;20034;-62
2023/10/02 18:28:19;;;;;;;34.03;13.13;;;;;;;24.38;64.31;100555.97;8323655;28;20064;-62
2023/10/02 18:32:20;;;;;;;31.40;12.18;;;;;;;24.22;65.25;100562.09;8326536;28;20053;-61
2023/10/02 18:36:21;;;;;;;31.45;12.27;;;;;;;24.29;65.58;100562.00;8326966;28;20052;-62
2023/10/02 18:40:21;;;;;;;33.30;12.10;;;;;;;24.21;66.15;100556.78;8329983;28;20498;-62
2023/10/02 18:44:23;;;;;;;35.33;12.88;;;;;;;24.17;66.87;100561.06;8312993;28;20444;-62
2023/10/02 18:48:24;;;;;;;32.75;12.45;;;;;;;24.26;66.54;100559.69;8319328;28;20053;-61
2023/10/02 18:52:24;;;;;;;33.58;12.98;;;;;;;24.01;67.47;100556.13;8315622;28;20449;-62
2023/10/02 18:56:25;;;;;;;36.83;12.55;;;;;;;23.82;68.15;100546.91;8340952;28;20339;-62
2023/10/02 19:00:26;;;;;;;32.35;12.68;;;;;;;23.66;69.29;100543.88;8328064;28;20052;-65
2023/10/02 19:04:26;;;;;;;35.00;13.55;;;;;;;23.56;69.78;100543.50;8325787;28;20045;-64
2023/10/02 19:08:27;;;;;;;35.40;12.77;;;;;;;23.38;70.37;100546.19;8321342;28;20452;-67